sensor_id;sensor_type;location;lat;lon;timestamp;pressure;altitude;pressure_sealevel;temperature;humidity
85055;BME280;75391;48.300;16.352;2024-02-15T00:00:48;100446.06;;;14.43;75.68
85055;BME280;75391;48.300;16.352;2024-02-15T00:03:14;100451.94;;;13.79;74.12
85055;BME280;75391;48.300;16.352;2024-02-15T00:05:39;100452.03;;;14.31;73.99
85055;BME280;75391;48.300;16.352;2024-02-15T00:08:05;100451.41;;;13.34;76.12
85055;BME280;75391;48.300;16.352;2024-02-15T00:10:31;100445.63;;;13.99;76.84
85055;BME280;75391;48.300;16.352;2024-02-15T00:12:58;100448.50;;;13.77;76.54
85055;BME280;75391;48.300;16.352;2024-02-15T00:15:24;100451.81;;;13.44;81.18
85055;BME280;75391;48.300;16.352;2024-02-15T00:17:50;100456.25;;;13.25;82.14
85055;BME280;75391;48.300;16.352;2024-02-15T00:20:15;100455.03;;;13.32;82.35
85055;BME280;75391;48.300;16.352;2024-02-15T00:22:41;100457.94;;;13.07;85.66
85055;BME280;75391;48.300;16.352;2024-02-15T00:25:07;100455.13;;;13.30;82.28
85055;BME280;75391;48.300;16.352;2024-02-15T00:27:33;100451.22;;;13.75;82.14
85055;BME280;75391;48.300;16.352;2024-02-15T00:29:58;100452.66;;;13.45;83.08
85055;BME280;75391;48.300;16.352;2024-02-15T00:32:24;100459.16;;;13.00;87.98
85055;BME280;75391;48.300;16.352;2024-02-15T00:34:50;100458.72;;;13.48;86.49
85055;BME280;75391;48.300;16.352;2024-02-15T00:37:15;100456.25;;;14.35;78.96
85055;BME280;75391;48.300;16.352;2024-02-15T00:39:41;100451.63;;;13.85;81.17
85055;BME280;75391;48.300;16.352;2024-02-15T00:42:07;100461.91;;;13.17;84.83
85055;BME280;75391;48.300;16.352;2024-02-15T00:44:32;100462.38;;;13.65;84.91
85055;BME280;75391;48.300;16.352;2024-02-15T00:46:58;100471.06;;;13.49;83.88
85055;BME280;75391;48.300;16.352;2024-02-15T00:49:24;100458.56;;;13.51;86.47
85055;BME280;75391;48.300;16.352;2024-02-15T00:51:50;100465.59;;;14.07;79.64
85055;BME280;75391;48.300;16.352;2024-02-15T00:54:16;100464.44;;;13.77;79.96
85055;BME280;75391;48.300;16.352;2024-02-15T00:56:41;100464.28;;;12.64;81.95
85055;BME280;75391;48.300;16.352;2024-02-15T00:59:07;100456.75;;;13.33;84.15
85055;BME280;75391;48.300;16.352;2024-02-15T01:01:33;100463.09;;;13.49;85.64
85055;BME280;75391;48.300;16.352;2024-02-15T01:03:58;100460.50;;;13.29;84.87
85055;BME280;75391;48.300;16.352;2024-02-15T01:06:24;100464.72;;;13.52;85.22
85055;BME280;75391;48.300;16.352;2024-02-15T01:08:50;100462.13;;;13.69;80.26
85055;BME280;75391;48.300;16.352;2024-02-15T01:11:15;100463.72;;;13.54;82.10
85055;BME280;75391;48.300;16.352;2024-02-15T01:13:42;100459.59;;;13.85;79.87
85055;BME280;75391;48.300;16.352;2024-02-15T01:16:08;100453.19;;;13.53;80.16
85055;BME280;75391;48.300;16.352;2024-02-15T01:18:33;100452.72;;;13.81;82.94
85055;BME280;75391;48.300;16.352;2024-02-15T01:20:59;100459.19;;;13.75;81.95
85055;BME280;75391;48.300;16.352;2024-02-15T01:23:25;100453.13;;;13.35;82.66
85055;BME280;75391;48.300;16.352;2024-02-15T01:25:50;100454.97;;;13.33;82.62
85055;BME280;75391;48.300;16.352;2024-02-15T01:28:16;100458.38;;;12.77;86.88
85055;BME280;75391;48.300;16.352;2024-02-15T01:30:42;100454.66;;;13.21;87.78
85055;BME280;75391;48.300;16.352;2024-02-15T01:33:07;100454.53;;;13.24;88.57
85055;BME280;75391;48.300;16.352;2024-02-15T01:35:33;100459.28;;;12.97;89.75
85055;BME280;75391;48.300;16.352;2024-02-15T01:37:59;100457.81;;;12.90;90.02
85055;BME280;75391;48.300;16.352;2024-02-15T01:40:25;100446.91;;;13.73;85.80
85055;BME280;75391;48.300;16.352;2024-02-15T01:42:50;100451.13;;;13.20;85.94
85055;BME280;75391;48.300;16.352;2024-02-15T01:45:16;100447.31;;;13.07;87.12
85055;BME280;75391;48.300;16.352;2024-02-15T01:47:42;100442.50;;;13.15;85.21
85055;BME280;75391;48.300;16.352;2024-02-15T01:50:10;100441.72;;;13.13;85.58
85055;BME280;75391;48.300;16.352;2024-02-15T01:52:37;100435.91;;;13.05;86.23
85055;BME280;75391;48.300;16.352;2024-02-15T01:55:05;100435.59;;;12.92;85.63
85055;BME280;75391;48.300;16.352;2024-02-15T01:57:31;100432.72;;;13.55;85.65
85055;BME280;75391;48.300;16.352;2024-02-15T01:59:57;100425.38;;;13.60;82.01
85055;BME280;75391;48.300;16.352;2024-02-15T02:02:25;100430.72;;;13.02;84.56
85055;BME280;75391;48.300;16.352;2024-02-15T02:04:52;100426.09;;;13.45;84.27
85055;BME280;75391;48.300;16.352;2024-02-15T02:07:18;100428.66;;;13.08;86.14
85055;BME280;75391;48.300;16.352;2024-02-15T02:09:46;100432.59;;;12.61;89.73
85055;BME280;75391;48.300;16.352;2024-02-15T02:12:12;100430.50;;;12.67;90.10
85055;BME280;75391;48.300;16.352;2024-02-15T02:14:37;100422.34;;;13.68;84.91
85055;BME280;75391;48.300;16.352;2024-02-15T02:17:13;100418.72;;;13.32;84.96
85055;BME280;75391;48.300;16.352;2024-02-15T02:19:40;100418.72;;;13.32;85.26
85055;BME280;75391;48.300;16.352;2024-02-15T02:22:06;100409.41;;;13.24;86.18
85055;BME280;75391;48.300;16.352;2024-02-15T02:24:33;100412.19;;;13.21;84.55
85055;BME280;75391;48.300;16.352;2024-02-15T02:27:01;100412.88;;;13.05;89.56
85055;BME280;75391;48.300;16.352;2024-02-15T02:29:27;100406.06;;;13.00;89.84
85055;BME280;75391;48.300;16.352;2024-02-15T02:31:53;100413.16;;;12.60;nan
85055;BME280;75391;48.300;16.352;2024-02-15T02:34:18;100403.97;;;12.88;94.71
85055;BME280;75391;48.300;16.352;2024-02-15T02:36:44;100407.09;;;12.77;95.23
85055;BME280;75391;48.300;16.352;2024-02-15T02:39:10;100409.63;;;12.60;97.57
85055;BME280;75391;48.300;16.352;2024-02-15T02:41:35;100404.81;;;12.88;95.96
85055;BME280;75391;48.300;16.352;2024-02-15T02:44:01;100414.69;;;12.66;95.74
85055;BME280;75391;48.300;16.352;2024-02-15T02:46:27;100410.53;;;12.79;96.32
85055;BME280;75391;48.300;16.352;2024-02-15T02:48:52;100415.97;;;12.57;100.00
85055;BME280;75391;48.300;16.352;2024-02-15T02:51:18;100411.44;;;12.59;100.00
85055;BME280;75391;48.300;16.352;2024-02-15T02:53:43;100407.09;;;12.56;100.00
85055;BME280;75391;48.300;16.352;2024-02-15T02:56:09;100404.22;;;12.42;100.00
85055;BME280;75391;48.300;16.352;2024-02-15T02:58:35;100412.28;;;11.98;100.00
85055;BME280;75391;48.300;16.352;2024-02-15T03:01:01;100410.13;;;12.88;100.00
85055;BME280;75391;48.300;16.352;2024-02-15T03:03:26;100415.75;;;13.20;100.00
85055;BME280;75391;48.300;16.352;2024-02-15T03:05:52;100410.56;;;12.59;100.00
85055;BME280;75391;48.300;16.352;2024-02-15T03:08:18;100412.63;;;12.52;100.00
85055;BME280;75391;48.300;16.352;2024-02-15T03:10:44;100420.38;;;12.16;100.00
85055;BME280;75391;48.300;16.352;2024-02-15T03:13:09;100418.66;;;12.76;100.00
85055;BME280;75391;48.300;16.352;2024-02-15T03:15:35;100417.53;;;12.61;100.00
85055;BME280;75391;48.300;16.352;2024-02-15T03:18:02;100414.91;;;12.41;100.00
85055;BME280;75391;48.300;16.352;2024-02-15T03:20:28;100422.75;;;12.63;100.00
85055;BME280;75391;48.300;16.352;2024-02-15T03:22:55;100412.31;;;12.99;100.00
85055;BME280;75391;48.300;16.352;2024-02-15T03:25:22;100414.50;;;12.89;100.00
85055;BME280;75391;48.300;16.352;2024-02-15T03:27:48;100421.44;;;12.73;100.00
85055;BME280;75391;48.300;16.352;2024-02-15T03:30:13;100416.94;;;12.75;100.00
85055;BME280;75391;48.300;16.352;2024-02-15T03:32:39;100417.38;;;13.03;100.00
85055;BME280;75391;48.300;16.352;2024-02-15T03:35:05;100414.41;;;13.49;96.77
85055;BME280;75391;48.300;16.352;2024-02-15T03:37:31;100416.88;;;12.36;100.00
85055;BME280;75391;48.300;16.352;2024-02-15T03:39:56;100413.09;;;12.41;100.00
85055;BME280;75391;48.300;16.352;2024-02-15T03:42:22;100419.75;;;12.91;100.00
85055;BME280;75391;48.300;16.352;2024-02-15T03:44:48;100420.53;;;12.53;100.00
85055;BME280;75391;48.300;16.352;2024-02-15T03:47:13;100423.97;;;12.76;100.00
85055;BME280;75391;48.300;16.352;2024-02-15T03:49:39;100423.97;;;12.55;100.00
85055;BME280;75391;48.300;16.352;2024-02-15T03:52:05;100425.81;;;12.53;100.00
85055;BME280;75391;48.300;16.352;2024-02-15T03:54:30;100426.81;;;12.30;100.00
85055;BME280;75391;48.300;16.352;2024-02-15T03:56:56;100435.16;;;12.21;100.00
85055;BME280;75391;48.300;16.352;2024-02-15T03:59:22;100439.31;;;12.27;100.00
85055;BME280;75391;48.300;16.352;2024-02-15T04:01:47;100431.44;;;12.25;100.00
85055;BME280;75391;48.300;16.352;2024-02-15T04:04:13;100425.34;;;12.23;100.00
85055;BME280;75391;48.300;16.352;2024-02-15T04:06:39;100425.56;;;12.39;100.00
85055;BME280;75391;48.300;16.352;2024-02-15T04:09:05;100419.59;;;12.34;100.00
85055;BME280;75391;48.300;16.352;2024-02-15T04:11:31;100419.66;;;12.12;100.00
85055;BME280;75391;48.300;16.352;2024-02-15T04:13:56;100413.06;;;12.00;100.00
85055;BME280;75391;48.300;16.352;2024-02-15T04:16:22;100416.41;;;12.06;100.00
85055;BME280;75391;48.300;16.352;2024-02-15T04:18:47;100405.72;;;12.07;100.00
85055;BME280;75391;48.300;16.352;2024-02-15T04:21:13;100408.53;;;12.24;100.00
85055;BME280;75391;48.300;16.352;2024-02-15T04:23:39;100409.38;;;12.25;100.00
85055;BME280;75391;48.300;16.352;2024-02-15T04:26:05;100407.13;;;12.36;100.00
85055;BME280;75391;48.300;16.352;2024-02-15T04:28:31;100397.91;;;12.45;100.00
85055;BME280;75391;48.300;16.352;2024-02-15T04:30:57;100401.75;;;12.38;100.00
85055;BME280;75391;48.300;16.352;2024-02-15T04:33:22;100403.81;;;12.31;100.00
85055;BME280;75391;48.300;16.352;2024-02-15T04:35:48;100405.00;;;12.24;100.00
85055;BME280;75391;48.300;16.352;2024-02-15T04:38:14;100404.75;;;12.10;100.00
85055;BME280;75391;48.300;16.352;2024-02-15T04:40:39;100404.84;;;12.07;100.00
85055;BME280;75391;48.300;16.352;2024-02-15T04:43:05;100405.59;;;12.10;100.00
85055;BME280;75391;48.300;16.352;2024-02-15T04:45:31;100412.88;;;12.05;100.00
85055;BME280;75391;48.300;16.352;2024-02-15T04:47:56;100419.56;;;12.14;100.00
85055;BME280;75391;48.300;16.352;2024-02-15T04:50:22;100424.88;;;12.14;100.00
85055;BME280;75391;48.300;16.352;2024-02-15T04:52:48;100426.38;;;11.77;100.00
85055;BME280;75391;48.300;16.352;2024-02-15T04:55:13;100426.06;;;12.07;100.00
85055;BME280;75391;48.300;16.352;2024-02-15T04:57:39;100425.81;;;12.53;100.00
85055;BME280;75391;48.300;16.352;2024-02-15T05:00:05;100430.34;;;12.09;100.00
85055;BME280;75391;48.300;16.352;2024-02-15T05:02:31;100424.41;;;12.45;100.00
85055;BME280;75391;48.300;16.352;2024-02-15T05:04:57;100424.34;;;12.26;100.00
85055;BME280;75391;48.300;16.352;2024-02-15T05:07:22;100416.97;;;12.94;100.00
85055;BME280;75391;48.300;16.352;2024-02-15T05:09:49;100421.00;;;12.22;100.00
85055;BME280;75391;48.300;16.352;2024-02-15T05:12:22;100430.00;;;12.18;100.00
85055;BME280;75391;48.300;16.352;2024-02-15T05:14:48;100418.41;;;12.41;100.00
85055;BME280;75391;48.300;16.352;2024-02-15T05:17:14;100421.03;;;12.82;100.00
85055;BME280;75391;48.300;16.352;2024-02-15T05:19:39;100426.81;;;12.51;100.00
85055;BME280;75391;48.300;16.352;2024-02-15T05:22:05;100427.47;;;12.76;100.00
85055;BME280;75391;48.300;16.352;2024-02-15T05:24:31;100417.22;;;13.27;100.00
85055;BME280;75391;48.300;16.352;2024-02-15T05:26:56;100415.06;;;13.35;100.00
85055;BME280;75391;48.300;16.352;2024-02-15T05:29:22;100417.66;;;14.09;100.00
85055;BME280;75391;48.300;16.352;2024-02-15T05:31:48;100415.72;;;13.40;100.00
85055;BME280;75391;48.300;16.352;2024-02-15T05:34:13;100413.81;;;13.61;100.00
85055;BME280;75391;48.300;16.352;2024-02-15T05:36:39;100415.09;;;14.07;100.00
85055;BME280;75391;48.300;16.352;2024-02-15T05:39:05;100421.97;;;13.75;100.00
85055;BME280;75391;48.300;16.352;2024-02-15T05:41:31;100422.44;;;13.66;100.00
85055;BME280;75391;48.300;16.352;2024-02-15T05:43:56;100416.47;;;13.61;100.00
85055;BME280;75391;48.300;16.352;2024-02-15T05:46:22;100423.25;;;13.49;100.00
85055;BME280;75391;48.300;16.352;2024-02-15T05:48:47;100429.09;;;12.99;100.00
85055;BME280;75391;48.300;16.352;2024-02-15T05:51:13;100426.47;;;12.98;100.00
85055;BME280;75391;48.300;16.352;2024-02-15T05:53:39;100427.22;;;13.01;100.00
85055;BME280;75391;48.300;16.352;2024-02-15T05:56:06;100428.50;;;12.93;100.00
85055;BME280;75391;48.300;16.352;2024-02-15T05:58:32;100433.44;;;13.40;100.00
85055;BME280;75391;48.300;16.352;2024-02-15T06:00:58;100431.66;;;13.01;100.00
85055;BME280;75391;48.300;16.352;2024-02-15T06:03:24;100442.75;;;12.90;100.00
85055;BME280;75391;48.300;16.352;2024-02-15T06:05:50;100448.75;;;12.54;100.00
85055;BME280;75391;48.300;16.352;2024-02-15T06:08:15;100444.72;;;12.66;100.00
85055;BME280;75391;48.300;16.352;2024-02-15T06:10:41;100440.00;;;12.93;100.00
85055;BME280;75391;48.300;16.352;2024-02-15T06:13:07;100448.16;;;12.89;100.00
85055;BME280;75391;48.300;16.352;2024-02-15T06:15:32;100449.66;;;12.94;100.00
85055;BME280;75391;48.300;16.352;2024-02-15T06:17:58;100446.13;;;12.75;100.00
85055;BME280;75391;48.300;16.352;2024-02-15T06:20:24;100451.31;;;12.97;100.00
85055;BME280;75391;48.300;16.352;2024-02-15T06:22:51;100450.44;;;12.96;100.00
85055;BME280;75391;48.300;16.352;2024-02-15T06:25:16;100461.06;;;12.57;100.00
85055;BME280;75391;48.300;16.352;2024-02-15T06:27:42;100464.25;;;12.23;100.00
85055;BME280;75391;48.300;16.352;2024-02-15T06:30:09;100464.78;;;12.31;100.00
85055;BME280;75391;48.300;16.352;2024-02-15T06:32:35;100469.13;;;12.34;100.00
85055;BME280;75391;48.300;16.352;2024-02-15T06:35:01;100469.25;;;13.87;100.00
85055;BME280;75391;48.300;16.352;2024-02-15T06:37:45;100467.66;;;12.67;100.00
85055;BME280;75391;48.300;16.352;2024-02-15T06:40:10;100474.69;;;12.27;100.00
85055;BME280;75391;48.300;16.352;2024-02-15T06:42:36;100480.50;;;12.97;100.00
85055;BME280;75391;48.300;16.352;2024-02-15T06:45:02;100474.53;;;14.06;100.00
85055;BME280;75391;48.300;16.352;2024-02-15T06:47:28;100477.94;;;12.95;100.00
85055;BME280;75391;48.300;16.352;2024-02-15T06:49:53;100476.88;;;12.99;100.00
85055;BME280;75391;48.300;16.352;2024-02-15T06:52:20;100484.84;;;12.59;100.00
85055;BME280;75391;48.300;16.352;2024-02-15T06:54:45;100480.44;;;12.98;100.00
85055;BME280;75391;48.300;16.352;2024-02-15T06:57:11;100480.66;;;13.33;100.00
85055;BME280;75391;48.300;16.352;2024-02-15T06:59:37;100491.22;;;12.75;100.00
85055;BME280;75391;48.300;16.352;2024-02-15T07:02:02;100486.53;;;13.21;100.00
85055;BME280;75391;48.300;16.352;2024-02-15T07:04:29;100496.84;;;12.67;100.00
85055;BME280;75391;48.300;16.352;2024-02-15T07:06:54;100496.69;;;12.50;100.00
85055;BME280;75391;48.300;16.352;2024-02-15T07:09:20;100497.91;;;13.24;100.00
85055;BME280;75391;48.300;16.352;2024-02-15T07:11:46;100501.56;;;11.96;100.00
85055;BME280;75391;48.300;16.352;2024-02-15T07:14:13;100503.69;;;12.30;100.00
85055;BME280;75391;48.300;16.352;2024-02-15T07:16:39;100508.50;;;12.43;100.00
85055;BME280;75391;48.300;16.352;2024-02-15T07:19:04;100512.03;;;13.04;100.00
85055;BME280;75391;48.300;16.352;2024-02-15T07:21:30;100510.53;;;12.36;100.00
85055;BME280;75391;48.300;16.352;2024-02-15T07:23:56;100505.38;;;13.35;100.00
85055;BME280;75391;48.300;16.352;2024-02-15T07:26:24;100497.69;;;13.48;100.00
85055;BME280;75391;48.300;16.352;2024-02-15T07:28:53;100491.59;;;13.65;100.00
85055;BME280;75391;48.300;16.352;2024-02-15T07:31:20;100504.13;;;13.03;100.00
85055;BME280;75391;48.300;16.352;2024-02-15T07:33:46;100501.03;;;12.93;100.00
85055;BME280;75391;48.300;16.352;2024-02-15T07:36:12;100494.09;;;13.49;100.00
85055;BME280;75391;48.300;16.352;2024-02-15T07:38:38;100491.72;;;13.61;100.00
85055;BME280;75391;48.300;16.352;2024-02-15T07:41:03;100489.78;;;13.27;100.00
85055;BME280;75391;48.300;16.352;2024-02-15T07:43:29;100485.34;;;13.07;100.00
85055;BME280;75391;48.300;16.352;2024-02-15T07:45:55;100492.16;;;13.13;100.00
85055;BME280;75391;48.300;16.352;2024-02-15T07:48:20;100493.47;;;13.04;100.00
85055;BME280;75391;48.300;16.352;2024-02-15T07:50:46;100487.16;;;12.87;100.00
85055;BME280;75391;48.300;16.352;2024-02-15T07:53:12;100481.09;;;13.03;100.00
85055;BME280;75391;48.300;16.352;2024-02-15T07:55:37;100486.78;;;13.35;100.00
85055;BME280;75391;48.300;16.352;2024-02-15T07:58:04;100489.88;;;12.65;100.00
85055;BME280;75391;48.300;16.352;2024-02-15T08:00:30;100498.03;;;12.60;100.00
85055;BME280;75391;48.300;16.352;2024-02-15T08:02:55;100482.59;;;12.70;100.00
85055;BME280;75391;48.300;16.352;2024-02-15T08:05:21;100485.41;;;13.06;100.00
85055;BME280;75391;48.300;16.352;2024-02-15T08:07:47;100486.44;;;12.83;100.00
85055;BME280;75391;48.300;16.352;2024-02-15T08:10:13;100479.31;;;13.24;100.00
85055;BME280;75391;48.300;16.352;2024-02-15T08:12:43;100480.63;;;13.14;100.00
85055;BME280;75391;48.300;16.352;2024-02-15T08:15:10;100477.09;;;13.72;100.00
85055;BME280;75391;48.300;16.352;2024-02-15T08:17:35;100475.44;;;13.31;100.00
85055;BME280;75391;48.300;16.352;2024-02-15T08:20:01;100477.50;;;13.62;100.00
85055;BME280;75391;48.300;16.352;2024-02-15T08:22:27;100475.22;;;13.36;100.00
85055;BME280;75391;48.300;16.352;2024-02-15T08:24:52;100468.13;;;13.36;100.00
85055;BME280;75391;48.300;16.352;2024-02-15T08:27:18;100470.63;;;13.77;100.00
85055;BME280;75391;48.300;16.352;2024-02-15T08:29:43;100474.00;;;13.98;100.00
85055;BME280;75391;48.300;16.352;2024-02-15T08:32:09;100475.38;;;13.71;100.00
85055;BME280;75391;48.300;16.352;2024-02-15T08:34:35;100482.03;;;13.79;100.00
85055;BME280;75391;48.300;16.352;2024-02-15T08:37:00;100483.63;;;13.65;100.00
85055;BME280;75391;48.300;16.352;2024-02-15T08:39:26;100486.13;;;13.49;100.00
85055;BME280;75391;48.300;16.352;2024-02-15T08:41:52;100487.28;;;13.62;100.00
85055;BME280;75391;48.300;16.352;2024-02-15T08:44:17;100483.56;;;13.66;100.00
85055;BME280;75391;48.300;16.352;2024-02-15T08:46:43;100483.28;;;13.53;100.00
85055;BME280;75391;48.300;16.352;2024-02-15T08:49:08;100477.03;;;13.35;100.00
85055;BME280;75391;48.300;16.352;2024-02-15T08:51:34;100479.88;;;13.69;100.00
85055;BME280;75391;48.300;16.352;2024-02-15T08:54:00;100481.94;;;13.81;100.00
85055;BME280;75391;48.300;16.352;2024-02-15T08:56:25;100477.56;;;13.80;100.00
85055;BME280;75391;48.300;16.352;2024-02-15T08:58:51;100475.94;;;13.58;100.00
85055;BME280;75391;48.300;16.352;2024-02-15T09:01:17;100478.47;;;13.98;100.00
85055;BME280;75391;48.300;16.352;2024-02-15T09:03:43;100476.53;;;14.01;100.00
85055;BME280;75391;48.300;16.352;2024-02-15T09:06:08;100475.97;;;13.95;100.00
85055;BME280;75391;48.300;16.352;2024-02-15T09:08:34;100468.72;;;13.79;100.00
85055;BME280;75391;48.300;16.352;2024-02-15T09:11:00;100472.16;;;13.64;100.00
85055;BME280;75391;48.300;16.352;2024-02-15T09:13:25;100469.50;;;14.00;100.00
85055;BME280;75391;48.300;16.352;2024-02-15T09:15:51;100470.50;;;13.98;100.00
85055;BME280;75391;48.300;16.352;2024-02-15T09:18:16;100468.34;;;13.87;100.00
85055;BME280;75391;48.300;16.352;2024-02-15T09:20:42;100467.78;;;13.80;100.00
85055;BME280;75391;48.300;16.352;2024-02-15T09:23:08;100470.44;;;14.16;100.00
85055;BME280;75391;48.300;16.352;2024-02-15T09:25:33;100475.69;;;14.01;100.00
85055;BME280;75391;48.300;16.352;2024-02-15T09:27:59;100469.94;;;13.91;100.00
85055;BME280;75391;48.300;16.352;2024-02-15T09:30:25;100471.00;;;13.87;100.00
85055;BME280;75391;48.300;16.352;2024-02-15T09:32:50;100463.88;;;13.70;100.00
85055;BME280;75391;48.300;16.352;2024-02-15T09:35:16;100466.28;;;13.75;100.00
85055;BME280;75391;48.300;16.352;2024-02-15T09:37:46;100472.91;;;13.85;100.00
85055;BME280;75391;48.300;16.352;2024-02-15T09:40:12;100478.00;;;13.89;100.00
85055;BME280;75391;48.300;16.352;2024-02-15T09:42:38;100476.47;;;14.03;100.00
85055;BME280;75391;48.300;16.352;2024-02-15T09:45:08;100472.72;;;14.07;100.00
85055;BME280;75391;48.300;16.352;2024-02-15T09:47:35;100466.16;;;14.14;100.00
85055;BME280;75391;48.300;16.352;2024-02-15T09:50:02;100474.22;;;14.12;100.00
85055;BME280;75391;48.300;16.352;2024-02-15T09:52:29;100474.56;;;14.24;100.00
85055;BME280;75391;48.300;16.352;2024-02-15T09:54:56;100473.63;;;14.42;100.00
85055;BME280;75391;48.300;16.352;2024-02-15T09:57:22;100471.41;;;14.33;100.00
85055;BME280;75391;48.300;16.352;2024-02-15T09:59:47;100459.13;;;14.30;100.00
85055;BME280;75391;48.300;16.352;2024-02-15T10:02:14;100456.41;;;14.32;100.00
85055;BME280;75391;48.300;16.352;2024-02-15T10:04:40;100457.50;;;14.45;100.00
85055;BME280;75391;48.300;16.352;2024-02-15T10:07:06;100449.50;;;14.45;100.00
85055;BME280;75391;48.300;16.352;2024-02-15T10:09:31;100453.59;;;14.18;100.00
85055;BME280;75391;48.300;16.352;2024-02-15T10:11:59;100457.75;;;14.58;100.00
85055;BME280;75391;48.300;16.352;2024-02-15T10:14:29;100446.97;;;14.61;100.00
85055;BME280;75391;48.300;16.352;2024-02-15T10:16:56;100446.09;;;14.60;100.00
85055;BME280;75391;48.300;16.352;2024-02-15T10:19:22;100451.72;;;14.89;100.00
85055;BME280;75391;48.300;16.352;2024-02-15T10:21:48;100440.78;;;14.93;100.00
85055;BME280;75391;48.300;16.352;2024-02-15T10:24:18;100435.44;;;14.78;100.00
85055;BME280;75391;48.300;16.352;2024-02-15T10:26:44;100433.50;;;15.30;100.00
85055;BME280;75391;48.300;16.352;2024-02-15T10:29:11;100431.66;;;14.82;100.00
85055;BME280;75391;48.300;16.352;2024-02-15T10:31:51;100440.72;;;14.95;100.00
85055;BME280;75391;48.300;16.352;2024-02-15T10:34:18;100442.78;;;14.90;100.00
85055;BME280;75391;48.300;16.352;2024-02-15T10:36:43;100436.81;;;15.34;100.00
85055;BME280;75391;48.300;16.352;2024-02-15T10:39:19;100439.78;;;14.96;100.00
85055;BME280;75391;48.300;16.352;2024-02-15T10:41:52;100435.13;;;15.33;100.00
85055;BME280;75391;48.300;16.352;2024-02-15T10:44:22;100441.69;;;14.77;100.00
85055;BME280;75391;48.300;16.352;2024-02-15T10:46:53;100428.75;;;14.86;100.00
85055;BME280;75391;48.300;16.352;2024-02-15T10:49:20;100426.41;;;15.13;100.00
85055;BME280;75391;48.300;16.352;2024-02-15T10:51:51;100426.91;;;15.04;100.00
85055;BME280;75391;48.300;16.352;2024-02-15T10:55:03;100421.53;;;15.21;100.00
85055;BME280;75391;48.300;16.352;2024-02-15T10:57:10;100425.66;;;15.27;100.00
85055;BME280;75391;48.300;16.352;2024-02-15T10:59:38;100414.81;;;15.46;100.00
85055;BME280;75391;48.300;16.352;2024-02-15T11:02:30;100417.09;;;15.69;100.00
85055;BME280;75391;48.300;16.352;2024-02-15T11:05:08;100413.44;;;16.02;100.00
85055;BME280;75391;48.300;16.352;2024-02-15T11:07:34;100401.94;;;15.86;100.00
85055;BME280;75391;48.300;16.352;2024-02-15T11:10:00;100396.34;;;15.74;100.00
85055;BME280;75391;48.300;16.352;2024-02-15T11:12:26;100400.63;;;16.23;100.00
85055;BME280;75391;48.300;16.352;2024-02-15T11:14:53;100397.09;;;15.92;100.00
85055;BME280;75391;48.300;16.352;2024-02-15T11:17:45;100402.28;;;15.95;100.00
85055;BME280;75391;48.300;16.352;2024-02-15T11:23:03;100393.44;;;16.09;100.00
85055;BME280;75391;48.300;16.352;2024-02-15T11:31:03;100379.25;;;15.79;100.00
85055;BME280;75391;48.300;16.352;2024-02-15T11:33:33;100380.34;;;15.90;100.00
85055;BME280;75391;48.300;16.352;2024-02-15T11:36:09;100383.81;;;16.07;100.00
85055;BME280;75391;48.300;16.352;2024-02-15T11:38:36;100376.81;;;16.20;100.00
85055;BME280;75391;48.300;16.352;2024-02-15T11:41:05;100375.59;;;16.25;100.00
85055;BME280;75391;48.300;16.352;2024-02-15T11:46:06;100368.38;;;16.12;100.00
85055;BME280;75391;48.300;16.352;2024-02-15T11:48:36;100374.56;;;16.42;100.00
85055;BME280;75391;48.300;16.352;2024-02-15T11:51:01;100368.91;;;16.77;100.00
85055;BME280;75391;48.300;16.352;2024-02-15T11:53:27;100368.41;;;16.56;100.00
85055;BME280;75391;48.300;16.352;2024-02-15T11:55:59;100365.44;;;17.18;100.00
85055;BME280;75391;48.300;16.352;2024-02-15T11:58:25;100360.78;;;16.93;100.00
85055;BME280;75391;48.300;16.352;2024-02-15T12:00:51;100361.13;;;16.58;100.00
85055;BME280;75391;48.300;16.352;2024-02-15T12:03:18;100364.22;;;16.08;100.00
85055;BME280;75391;48.300;16.352;2024-02-15T12:05:44;100364.22;;;16.66;100.00
85055;BME280;75391;48.300;16.352;2024-02-15T12:08:10;100363.38;;;16.80;100.00
85055;BME280;75391;48.300;16.352;2024-02-15T12:10:36;100359.91;;;16.64;100.00
85055;BME280;75391;48.300;16.352;2024-02-15T12:13:02;100361.34;;;16.83;100.00
85055;BME280;75391;48.300;16.352;2024-02-15T12:15:27;100361.84;;;16.76;100.00
85055;BME280;75391;48.300;16.352;2024-02-15T12:17:53;100351.63;;;16.68;100.00
85055;BME280;75391;48.300;16.352;2024-02-15T12:20:19;100353.34;;;16.83;100.00
85055;BME280;75391;48.300;16.352;2024-02-15T12:22:47;100353.06;;;16.88;100.00
85055;BME280;75391;48.300;16.352;2024-02-15T12:25:16;100350.41;;;17.02;100.00
85055;BME280;75391;48.300;16.352;2024-02-15T12:27:43;100340.75;;;17.14;100.00
85055;BME280;75391;48.300;16.352;2024-02-15T12:30:16;100333.72;;;17.67;100.00
85055;BME280;75391;48.300;16.352;2024-02-15T12:32:42;100335.19;;;17.17;100.00
85055;BME280;75391;48.300;16.352;2024-02-15T12:35:21;100337.09;;;17.15;100.00
85055;BME280;75391;48.300;16.352;2024-02-15T12:37:47;100326.63;;;16.83;100.00
85055;BME280;75391;48.300;16.352;2024-02-15T12:40:16;100329.84;;;17.17;100.00